createdAt,value
2023-03-28T10:10:26.392Z,46.56
2023-03-28T10:12:57.087Z,46.41
2023-03-28T10:15:41.468Z,46.69
2023-03-28T10:18:08.527Z,46.65
2023-03-28T10:20:36.999Z,46.46
2023-03-28T10:23:04.631Z,46.51
2023-03-28T10:25:39.964Z,46.55
2023-03-28T10:28:07.732Z,45.76
2023-03-28T10:30:35.836Z,46.46
2023-03-28T10:33:17.715Z,46.25
2023-03-28T10:35:45.965Z,46.58
2023-03-28T10:38:16.906Z,46.25
2023-03-28T10:40:43.524Z,46.41
2023-03-28T10:43:13.653Z,46.31
2023-03-28T10:45:42.251Z,45.17
2023-03-28T10:48:13.393Z,45.92
2023-03-28T10:50:50.345Z,46.29
2023-03-28T10:53:35.716Z,46.28
2023-03-28T10:56:21.282Z,46.20
2023-03-28T10:58:56.997Z,46.32
2023-03-28T11:01:27.307Z,45.87
2023-03-28T11:04:12.351Z,46.24
2023-03-28T11:06:46.881Z,46.28
2023-03-28T11:09:31.863Z,46.18
2023-03-28T11:11:58.476Z,46.10
2023-03-28T11:14:37.132Z,46.12
2023-03-28T11:17:03.769Z,45.97
2023-03-28T11:19:42.624Z,46.01
2023-03-28T11:22:18.330Z,45.96
2023-03-28T11:25:06.593Z,46.09
2023-03-28T11:27:51.329Z,45.99
2023-03-28T11:30:20.981Z,46.17
2023-03-28T11:33:13.336Z,46.11
2023-03-28T11:35:51.762Z,46.04
2023-03-28T11:38:22.527Z,45.74
2023-03-28T11:41:01.650Z,45.91
2023-03-28T11:43:51.119Z,46.32
2023-03-28T11:46:27.324Z,46.31
2023-03-28T11:49:16.327Z,46.60
2023-03-28T11:51:56.340Z,46.07
2023-03-28T11:54:27.648Z,46.20
2023-03-28T11:57:01.321Z,45.88
2023-03-28T11:59:28.183Z,46.05
2023-03-28T12:02:02.432Z,45.79
2023-03-28T12:04:33.593Z,45.77
2023-03-28T12:07:03.233Z,44.17
2023-03-28T12:09:41.427Z,44.77
2023-03-28T12:12:10.984Z,45.56
2023-03-28T12:14:56.983Z,45.21
2023-03-28T12:17:27.136Z,45.27
2023-03-28T12:19:53.984Z,44.36
2023-03-28T12:22:40.481Z,39.34
2023-03-28T12:25:24.761Z,43.20
2023-03-28T12:28:11.244Z,44.13
2023-03-28T12:30:43.163Z,43.78
2023-03-28T12:33:24.468Z,43.49
2023-03-28T12:36:10.813Z,43.66
2023-03-28T12:38:42.564Z,43.78
2023-03-28T12:41:11.961Z,43.98
2023-03-28T12:43:41.545Z,43.67
2023-03-28T12:46:08.882Z,43.61
2023-03-28T12:48:35.555Z,43.52
2023-03-28T12:51:04.864Z,43.53
2023-03-28T12:53:32.010Z,42.50
2023-03-28T12:55:58.609Z,42.98
2023-03-28T12:58:29.083Z,42.76
2023-03-28T13:00:58.776Z,43.52
2023-03-28T13:03:28.664Z,43.39
2023-03-28T13:06:14.381Z,43.51
2023-03-28T13:08:59.880Z,42.18
2023-03-28T13:11:29.801Z,43.10
2023-03-28T13:13:58.070Z,42.58
2023-03-28T13:16:37.396Z,42.74
2023-03-28T13:19:09.062Z,42.13
2023-03-28T13:21:41.958Z,41.95
2023-03-28T13:24:28.043Z,42.37
2023-03-28T13:26:58.811Z,42.29
2023-03-28T13:29:42.541Z,41.46
2023-03-28T13:32:12.435Z,41.65
2023-03-28T13:34:38.979Z,42.19
2023-03-28T13:37:22.677Z,42.39
2023-03-28T13:39:51.007Z,42.38
2023-03-28T13:42:46.816Z,42.17
2023-03-28T13:45:20.485Z,40.71
2023-03-28T13:47:50.250Z,39.26
2023-03-28T13:50:23.160Z,41.26
2023-03-28T13:52:49.763Z,41.46
2023-03-28T13:55:24.129Z,41.34
2023-03-28T13:57:51.669Z,41.62
2023-03-28T14:00:20.779Z,41.01
2023-03-28T14:02:48.755Z,40.12
2023-03-28T14:05:20.195Z,39.72
2023-03-28T14:07:46.879Z,40.66
2023-03-28T14:10:30.451Z,40.61
2023-03-28T14:12:59.081Z,41.23
2023-03-28T14:15:28.998Z,41.19
2023-03-28T14:17:57.105Z,41.88
2023-03-28T14:20:24.047Z,40.27
2023-03-28T14:22:59.837Z,40.94
2023-03-28T14:25:27.949Z,41.20
2023-03-28T14:27:56.007Z,41.50
2023-03-28T14:30:25.647Z,41.86
2023-03-28T14:32:59.208Z,41.86
2023-03-28T14:35:29.694Z,41.89
2023-03-28T14:37:57.548Z,41.99
2023-03-28T14:40:24.182Z,41.94
2023-03-28T14:42:55.973Z,37.37
2023-03-28T14:45:24.779Z,40.23
2023-03-28T14:47:51.844Z,38.11
2023-03-28T14:50:20.473Z,39.70
2023-03-28T14:52:47.562Z,40.24
2023-03-28T14:55:24.138Z,40.72
2023-03-28T14:57:52.278Z,40.73
2023-03-28T15:00:22.672Z,40.65
2023-03-28T15:02:49.524Z,41.07
2023-03-28T15:05:17.777Z,38.70
2023-03-28T15:07:44.925Z,38.60
2023-03-28T15:10:20.708Z,39.88
2023-03-28T15:12:51.525Z,40.01
2023-03-28T15:15:24.170Z,40.24
2023-03-28T15:17:51.959Z,39.77
2023-03-28T15:20:21.228Z,40.19
2023-03-28T15:22:50.213Z,38.86
2023-03-28T15:25:17.064Z,37.91
2023-03-28T15:27:48.151Z,38.71
2023-03-28T15:30:16.747Z,39.23
2023-03-28T15:32:43.686Z,37.89
2023-03-28T15:35:24.313Z,39.08
2023-03-28T15:37:52.349Z,39.30
2023-03-28T15:40:22.486Z,39.75
2023-03-28T15:42:50.090Z,38.00
2023-03-28T15:45:19.601Z,38.39
2023-03-28T15:47:47.215Z,37.50
2023-03-28T15:50:16.854Z,36.59
2023-03-28T15:52:43.394Z,38.77
2023-03-28T15:55:18.647Z,38.06
2023-03-28T15:57:47.903Z,39.06
2023-03-28T16:00:37.568Z,38.13
2023-03-28T16:03:25.490Z,37.53
2023-03-28T16:06:09.856Z,37.29
2023-03-28T16:08:39.599Z,37.14
2023-03-28T16:11:07.062Z,37.79
2023-03-28T16:13:34.206Z,37.98
2023-03-28T16:16:01.460Z,37.39
2023-03-28T16:18:28.282Z,38.19
2023-03-28T16:20:54.775Z,38.54
2023-03-28T16:23:21.259Z,37.19
2023-03-28T16:25:47.930Z,38.14
2023-03-28T16:28:17.402Z,38.93
2023-03-28T16:30:44.202Z,38.77
2023-03-28T16:33:11.020Z,39.12
2023-03-28T16:35:37.868Z,39.69
2023-03-28T16:38:04.416Z,39.22
2023-03-28T16:40:31.396Z,39.24
2023-03-28T16:42:58.012Z,39.44
2023-03-28T16:45:25.053Z,39.36
2023-03-28T16:47:52.489Z,39.03
2023-03-28T16:50:19.235Z,37.25
2023-03-28T16:52:45.723Z,38.54
2023-03-28T16:55:13.544Z,38.84
2023-03-28T16:57:40.621Z,38.96
2023-03-28T17:00:09.231Z,38.97
2023-03-28T17:02:35.967Z,39.03
2023-03-28T17:05:02.582Z,39.21
2023-03-28T17:07:29.132Z,38.94
2023-03-28T17:09:55.768Z,38.56
2023-03-28T17:12:24.075Z,39.68
2023-03-28T17:14:51.423Z,39.10
2023-03-28T17:17:21.439Z,38.89
2023-03-28T17:19:48.111Z,39.39
2023-03-28T17:22:14.776Z,39.25
2023-03-28T17:24:41.363Z,39.68
2023-03-28T17:27:09.916Z,39.72
2023-03-28T17:29:36.432Z,39.74
2023-03-28T17:32:03.261Z,39.01
2023-03-28T17:34:32.105Z,39.90
2023-03-28T17:36:59.089Z,39.84
2023-03-28T17:39:25.727Z,39.82
2023-03-28T17:41:53.398Z,39.80
2023-03-28T17:44:20.576Z,39.55
2023-03-28T17:46:47.971Z,39.66
2023-03-28T17:49:16.887Z,39.78
2023-03-28T17:51:45.191Z,39.75
2023-03-28T17:54:12.246Z,39.82
2023-03-28T17:56:39.409Z,40.15
2023-03-28T17:59:06.406Z,39.99
2023-03-28T18:01:33.008Z,40.04
2023-03-28T18:03:59.770Z,40.21
2023-03-28T18:06:26.482Z,40.20
2023-03-28T18:08:53.096Z,40.53
2023-03-28T18:11:20.238Z,40.51
2023-03-28T18:13:47.019Z,40.53
2023-03-28T18:16:14.487Z,40.33
2023-03-28T18:18:41.631Z,40.33
2023-03-28T18:21:08.693Z,40.18
2023-03-28T18:23:36.048Z,40.47
2023-03-28T18:26:03.007Z,40.58
2023-03-28T18:28:29.759Z,40.45
2023-03-28T18:30:57.442Z,40.35
2023-03-28T18:33:24.126Z,39.61
2023-03-28T18:35:50.804Z,40.26
2023-03-28T18:38:17.925Z,40.59
2023-03-28T18:40:44.599Z,40.40
2023-03-28T18:43:11.157Z,40.48
2023-03-28T18:45:37.827Z,40.63
2023-03-28T18:48:04.751Z,40.77
2023-03-28T18:50:31.580Z,40.55
2023-03-28T18:52:58.227Z,40.51
2023-03-28T18:55:24.989Z,40.54
2023-03-28T18:57:52.855Z,40.39
2023-03-28T19:00:19.973Z,40.66
2023-03-28T19:02:47.175Z,40.19
2023-03-28T19:05:15.439Z,40.79
2023-03-28T19:07:46.025Z,40.79
2023-03-28T19:10:13.584Z,40.47
2023-03-28T19:12:41.459Z,40.37
2023-03-28T19:15:08.902Z,40.84
2023-03-28T19:17:36.606Z,40.77
2023-03-28T19:20:07.571Z,40.55
2023-03-28T19:22:35.249Z,40.59
2023-03-28T19:25:01.878Z,40.88
2023-03-28T19:27:28.386Z,40.66
2023-03-28T19:30:01.935Z,40.71
2023-03-28T19:32:30.642Z,40.74
2023-03-28T19:34:57.474Z,40.82
2023-03-28T19:37:24.050Z,40.52
2023-03-28T19:39:50.570Z,40.48
2023-03-28T19:42:18.264Z,39.96
2023-03-28T19:44:44.869Z,40.45
2023-03-28T19:47:11.713Z,40.57
2023-03-28T19:49:38.912Z,40.39
2023-03-28T19:52:05.868Z,40.43
2023-03-28T19:54:32.509Z,40.78
2023-03-28T19:56:59.142Z,40.90
2023-03-28T19:59:25.997Z,40.51
2023-03-28T20:01:52.548Z,40.83
2023-03-28T20:04:21.026Z,40.83
2023-03-28T20:06:48.935Z,40.44
2023-03-28T20:09:15.628Z,40.33
2023-03-28T20:11:42.242Z,40.36
2023-03-28T20:14:09.604Z,40.62
2023-03-28T20:16:36.302Z,40.23
2023-03-28T20:19:03.115Z,40.12
2023-03-28T20:21:29.783Z,40.36
2023-03-28T20:23:58.535Z,40.42
2023-03-28T20:26:27.249Z,40.65
2023-03-28T20:28:57.039Z,40.49
2023-03-28T20:31:23.725Z,40.67
2023-03-28T20:33:52.110Z,40.86
2023-03-28T20:36:18.754Z,40.92
2023-03-28T20:38:45.341Z,40.41
2023-03-28T20:41:12.989Z,40.58
2023-03-28T20:43:40.994Z,40.71
2023-03-28T20:46:07.866Z,40.84
2023-03-28T20:48:34.918Z,40.89
2023-03-28T20:51:05.992Z,40.50
2023-03-28T20:53:35.717Z,39.71
2023-03-28T20:56:03.629Z,40.53
2023-03-28T20:58:30.727Z,40.42
2023-03-28T21:00:58.377Z,40.18
2023-03-28T21:03:39.319Z,40.29
2023-03-28T21:06:06.779Z,40.10
2023-03-28T21:08:36.476Z,40.56
2023-03-28T21:11:03.887Z,40.39
2023-03-28T21:13:30.557Z,39.84
2023-03-28T21:15:57.591Z,40.34
2023-03-28T21:18:25.095Z,40.41
2023-03-28T21:20:54.272Z,40.62
2023-03-28T21:23:21.001Z,40.18
2023-03-28T21:25:52.106Z,40.18
2023-03-28T21:28:18.993Z,39.99
2023-03-28T21:30:56.173Z,39.96
2023-03-28T21:33:22.745Z,40.02
2023-03-28T21:35:52.506Z,40.31
2023-03-28T21:38:19.423Z,40.64
2023-03-28T21:40:48.960Z,40.20
2023-03-28T21:43:16.157Z,40.58
2023-03-28T21:45:46.541Z,40.62
2023-03-28T21:48:13.435Z,40.66
2023-03-28T21:50:41.083Z,40.27
2023-03-28T21:53:08.708Z,40.22
2023-03-28T21:55:35.783Z,40.82
2023-03-28T21:58:02.611Z,40.78
2023-03-28T22:00:29.259Z,40.50
2023-03-28T22:02:56.207Z,40.25
2023-03-28T22:05:29.744Z,40.40
2023-03-28T22:07:56.836Z,39.86
2023-03-28T22:10:26.742Z,40.20
2023-03-28T22:12:54.026Z,40.76
2023-03-28T22:15:20.538Z,40.43
2023-03-28T22:17:47.281Z,40.29
2023-03-28T22:20:14.531Z,40.25
2023-03-28T22:22:45.242Z,40.64
2023-03-28T22:25:14.233Z,40.60
2023-03-28T22:27:40.763Z,40.36
2023-03-28T22:30:10.363Z,40.19
2023-03-28T22:32:38.950Z,40.14
2023-03-28T22:35:05.931Z,40.05
2023-03-28T22:37:33.320Z,40.71
2023-03-28T22:39:59.865Z,40.35
2023-03-28T22:42:26.747Z,40.85
2023-03-28T22:44:53.348Z,40.66
2023-03-28T22:47:19.862Z,40.83
2023-03-28T22:49:46.374Z,40.55
2023-03-28T22:52:13.780Z,40.82
2023-03-28T22:54:42.753Z,40.14
2023-03-28T22:57:09.796Z,40.60
2023-03-28T22:59:36.666Z,40.69
2023-03-28T23:02:03.913Z,40.53
2023-03-28T23:04:33.188Z,40.73
2023-03-28T23:06:59.718Z,40.14
2023-03-28T23:09:27.848Z,40.40
2023-03-28T23:11:55.189Z,39.85
2023-03-28T23:14:22.283Z,40.90
2023-03-28T23:16:49.076Z,40.96
2023-03-28T23:19:16.512Z,40.92
2023-03-28T23:21:43.483Z,39.88
2023-03-28T23:24:10.204Z,40.24
2023-03-28T23:26:36.739Z,38.69
2023-03-28T23:29:05.352Z,39.95
2023-03-28T23:31:32.065Z,40.19
2023-03-28T23:33:58.721Z,39.79
2023-03-28T23:36:26.259Z,39.95
2023-03-28T23:38:53.209Z,40.05
2023-03-28T23:41:19.675Z,40.15
2023-03-28T23:43:46.366Z,40.39
2023-03-28T23:46:12.957Z,39.85
2023-03-28T23:48:39.494Z,40.17
2023-03-28T23:51:06.295Z,40.09
2023-03-28T23:53:32.821Z,40.35
2023-03-28T23:55:59.394Z,40.17
2023-03-28T23:58:26.102Z,40.69
